الصفحة الرئيسية
METAR-TAF:

METAR-TAF

مطار :

مطار أنتونيو بي وان بات الدولي

Hagåtña, غوام, الولايات المتحدة

دائرة عرض: 13-29N, خط طول: 144-48E, ارتفاع: 91 متر

مراقبة الطقس الحالي

تاريخ ووقت الإصدار 15 دقيقة قبل الساعة 22:54UTC
ريح 6 عقدة من الشرق/الشمال الشرقي
درجة الحرارة 31°درجة مئوية
الرطوبة 75%
ضغط 1011 hPa
الرؤية: 16.1 كم
غيوم متفرقة على ارتفاع 1900 قدم

METAR: PGUM 202254Z 07006KT 10SM SCT019 31/26 A2985 RMK AO2 SLP100 T03060261

زمن: 09:09 (23:09 UTC)

توقعات

تاريخ ووقت الإصدار 5ساعات و 49 دقيقة قبل الساعة 17:20UTC
التوقعات صالحة من20 الساعة 18 UTC إلى 21 الساعة 24 UTC
ريح 5 عقدة من الشمال/الشمال الشرقي
الرؤية: 10 كم
غيوم قليلة على ارتفاع 1800 قدم
غيوم متفرقة على ارتفاع 5000 قدم
زخات في الجوار

TAF: PGUM 201720Z 2018/2124 02005KT P6SM VCSH FEW018 SCT050

أرصاد الطقس والتوقعات من أكثر من 4000 مطار (تقارير الطقس للمطار METAR والتنبؤ بالطقس بالمطارTAF).

المحطات المتاحة هي النقط الصفراء والحمراء على الخريطة.

حرك المؤشر فوق النقطة لمعرفة اسم المحطة.

ثم انقر لمعرفة أرصاد وتوقعات الطقس.

لتغيير الخارطة: اضغط على الأزرار الخضراء مع رمز الصليب الأسود للتكبير. على الزر الأخضر مع شرطة للتصغير، أو على الأسهم الخضراء للخرائط المجاورة.


METAR-TAF: